createdAt,value
2018-08-25T00:01:01.912Z,27.38
2018-08-25T00:02:11.492Z,27.86
2018-08-25T00:03:21.606Z,27.19
2018-08-25T00:04:31.178Z,26.33
2018-08-25T00:05:40.749Z,26.52
2018-08-25T00:06:49.782Z,26.52
2018-08-25T00:07:59.620Z,28.33
2018-08-25T00:09:08.649Z,26.62
2018-08-25T00:10:18.214Z,26.24
2018-08-25T00:11:27.289Z,26.14
2018-08-25T00:12:36.864Z,27.48
2018-08-25T00:13:46.973Z,27.27
2018-08-25T00:14:56.547Z,27.67
2018-08-25T00:16:05.847Z,26.32
2018-08-25T00:17:15.685Z,26.51
2018-08-25T00:18:25.788Z,27.84
2018-08-25T00:19:35.899Z,27.66
2018-08-25T00:20:45.740Z,28.32
2018-08-25T00:21:55.575Z,28.51
2018-08-25T00:23:05.419Z,28.7
2018-08-25T00:24:15.262Z,28.32
2018-08-25T00:25:25.102Z,28.99
2018-08-25T00:26:34.669Z,30.8
2018-08-25T00:27:44.242Z,31.56
2018-08-25T00:28:53.813Z,31.85
2018-08-25T00:30:03.389Z,31.76
2018-08-25T00:31:12.960Z,32.71
2018-08-25T00:32:22.260Z,31.56
2018-08-25T00:33:31.821Z,32.32
2018-08-25T00:34:41.655Z,32.32
2018-08-25T00:35:51.223Z,32.81
2018-08-25T00:37:07.058Z,33.37
2018-08-25T00:38:16.360Z,32.14
2018-08-25T00:39:25.676Z,32.81
2018-08-25T00:40:35.245Z,32.32
2018-08-25T00:41:45.082Z,32.81
2018-08-25T00:42:55.196Z,33.66
2018-08-25T00:44:04.496Z,34.14
2018-08-25T00:45:14.330Z,34.14
2018-08-25T00:46:24.167Z,32.42
2018-08-25T00:47:33.488Z,32.14
2018-08-25T00:48:43.728Z,32.71
2018-08-25T00:49:53.573Z,32.61
2018-08-25T00:51:03.147Z,33.66
2018-08-25T00:52:12.990Z,32.81
2018-08-25T00:53:22.574Z,32.52
2018-08-25T00:54:31.876Z,32.61
2018-08-25T00:55:41.766Z,33.09
2018-08-25T00:56:51.065Z,33.37
2018-08-25T00:58:00.913Z,33.09
2018-08-25T00:59:11.053Z,31.56
2018-08-25T01:00:20.732Z,33.47
2018-08-25T01:01:30.035Z,34.23
2018-08-25T01:02:40.148Z,33.85
2018-08-25T01:03:50.263Z,32.23
2018-08-25T01:04:59.831Z,32.52
2018-08-25T01:06:09.129Z,33.85
2018-08-25T01:07:18.430Z,33.95
2018-08-25T01:08:28.006Z,35
2018-08-25T01:09:37.575Z,34.61
2018-08-25T01:10:47.413Z,34.71
2018-08-25T01:11:56.171Z,35.47
2018-08-25T01:13:06.292Z,35.19
2018-08-25T01:14:16.133Z,34.9
2018-08-25T01:15:26.237Z,34.33
2018-08-25T01:16:36.495Z,34.52
2018-08-25T01:17:46.332Z,36.62
2018-08-25T01:18:55.355Z,36.9
2018-08-25T01:20:05.240Z,37.29
2018-08-25T01:21:14.807Z,36.62
2018-08-25T01:22:24.919Z,36.9
2018-08-25T01:23:34.756Z,37.86
2018-08-25T01:24:44.376Z,38.43
2018-08-25T01:25:53.673Z,38.71
2018-08-25T01:27:03.252Z,38.81
2018-08-25T01:28:12.818Z,38.91
2018-08-25T01:29:22.940Z,38.24
2018-08-25T01:30:32.504Z,36.33
2018-08-25T01:31:42.343Z,39.67
2018-08-25T01:32:51.918Z,39.86
2018-08-25T01:34:01.490Z,39.1
2018-08-25T01:35:11.066Z,37.38
2018-08-25T01:36:20.639Z,38.91
2018-08-25T01:37:30.813Z,38.91
2018-08-25T01:38:40.383Z,39.1
2018-08-25T01:39:50.505Z,39.76
2018-08-25T01:41:00.067Z,40.72
2018-08-25T01:42:09.365Z,41.1
2018-08-25T01:43:18.663Z,41.67
2018-08-25T01:44:28.230Z,42.53
2018-08-25T01:45:37.533Z,42.53
2018-08-25T01:46:47.384Z,43.2
2018-08-25T01:47:56.947Z,43.58
2018-08-25T01:49:06.793Z,41.75
2018-08-25T01:50:16.094Z,42.13
2018-08-25T01:51:25.939Z,43.2
2018-08-25T01:52:35.773Z,42.89
2018-08-25T01:53:45.615Z,44.34
2018-08-25T01:54:55.727Z,42.7
2018-08-25T01:56:05.030Z,43.75
2018-08-25T01:57:14.877Z,44.34
2018-08-25T01:58:24.723Z,44.15
2018-08-25T01:59:34.026Z,43.68
2018-08-25T02:00:43.929Z,44.82
2018-08-25T02:01:53.767Z,44.44
2018-08-25T02:03:03.338Z,43.75
2018-08-25T02:04:12.907Z,43.65
2018-08-25T02:05:22.493Z,44.8
2018-08-25T02:06:32.096Z,45.2
2018-08-25T02:07:42.213Z,44.7
2018-08-25T02:08:51.791Z,44.04
2018-08-25T02:10:01.368Z,43.84
2018-08-25T02:11:10.937Z,44.8
2018-08-25T02:12:20.512Z,43.84
2018-08-25T02:13:30.099Z,43.96
2018-08-25T02:14:39.933Z,44.7
2018-08-25T02:15:50.038Z,44.89
2018-08-25T02:16:59.067Z,44.7
2018-08-25T02:18:08.634Z,42.51
2018-08-25T02:19:17.936Z,37.84
2018-08-25T02:20:27.508Z,42.13
2018-08-25T02:21:37.352Z,39.94
2018-08-25T02:22:47.486Z,40.03
2018-08-25T02:23:56.855Z,38.03
2018-08-25T02:25:06.692Z,40.99
2018-08-25T02:26:15.991Z,40.22
2018-08-25T02:27:25.027Z,40.6
2018-08-25T02:28:35.143Z,39.08
2018-08-25T02:29:44.988Z,39.84
2018-08-25T02:30:54.302Z,41.17
2018-08-25T02:32:04.141Z,40.99
2018-08-25T02:33:13.981Z,41.08
2018-08-25T02:34:23.290Z,41.27
2018-08-25T02:35:32.859Z,40.8
2018-08-25T02:36:42.695Z,41.27
2018-08-25T02:37:52.538Z,40.89
2018-08-25T02:39:02.650Z,41.27
2018-08-25T02:40:12.491Z,41.17
2018-08-25T02:41:22.332Z,41.75
2018-08-25T02:42:32.176Z,42.51
2018-08-25T02:43:42.015Z,41.94
2018-08-25T02:44:51.859Z,42.51
2018-08-25T02:46:01.429Z,42.32
2018-08-25T02:47:11.266Z,41.94
2018-08-25T02:48:20.841Z,42.41
2018-08-25T02:49:30.686Z,42.22
2018-08-25T02:50:40.533Z,42.22
2018-08-25T02:51:50.376Z,42.03
2018-08-25T02:53:00.540Z,42.89
2018-08-25T02:54:10.375Z,43.27
2018-08-25T02:55:20.231Z,42.7
2018-08-25T02:56:30.339Z,42.51
2018-08-25T02:57:39.915Z,43.18
2018-08-25T02:58:49.498Z,42.13
2018-08-25T02:59:59.352Z,43.18
2018-08-25T03:01:09.201Z,43.27
2018-08-25T03:02:19.324Z,44.8
2018-08-25T03:03:29.450Z,44.8
2018-08-25T03:04:39.014Z,44.04
2018-08-25T03:05:48.864Z,44.04
2018-08-25T03:06:58.444Z,43.65
2018-08-25T03:08:08.010Z,43.75
2018-08-25T03:09:17.303Z,43.56
2018-08-25T03:10:27.144Z,42.99
2018-08-25T03:11:36.722Z,43.84
2018-08-25T03:12:46.556Z,43.75
2018-08-25T03:13:56.643Z,44.42
2018-08-25T03:15:06.755Z,44.13
2018-08-25T03:16:16.321Z,45.37
2018-08-25T03:17:26.166Z,43.94
2018-08-25T03:18:35.739Z,44.6
2018-08-25T03:19:45.860Z,44.32
2018-08-25T03:20:55.979Z,44.8
2018-08-25T03:22:05.557Z,43.94
2018-08-25T03:23:15.138Z,44.13
2018-08-25T03:24:24.984Z,44.89
2018-08-25T03:25:34.824Z,44.8
2018-08-25T03:26:44.671Z,44.8
2018-08-25T03:27:54.241Z,44.6
2018-08-25T03:29:03.808Z,44.42
2018-08-25T03:30:13.667Z,43.84
2018-08-25T03:31:22.975Z,46.13
2018-08-25T03:32:32.569Z,46.8
2018-08-25T03:33:42.462Z,46.51
2018-08-25T03:34:52.042Z,46.23
2018-08-25T03:36:01.338Z,46.04
2018-08-25T03:37:11.181Z,46.42
2018-08-25T03:38:21.023Z,46.61
2018-08-25T03:39:30.866Z,46.82
2018-08-25T03:40:40.747Z,46.89
2018-08-25T03:41:50.589Z,45.94
2018-08-25T03:43:00.157Z,45.28
2018-08-25T03:44:10.271Z,44.04
2018-08-25T03:45:19.845Z,45.08
2018-08-25T03:46:29.689Z,44.42
2018-08-25T03:47:39.258Z,44.99
2018-08-25T03:48:48.821Z,45.37
2018-08-25T03:49:58.669Z,44.99
2018-08-25T03:51:08.239Z,43.94
2018-08-25T03:52:17.815Z,44.89
2018-08-25T03:53:27.668Z,44.8
2018-08-25T03:54:37.235Z,43.18
2018-08-25T03:55:47.078Z,43.75
2018-08-25T03:56:56.653Z,43.18
2018-08-25T03:58:06.504Z,41.46
2018-08-25T03:59:16.628Z,42.13
2018-08-25T04:00:26.209Z,42.41
2018-08-25T04:01:36.260Z,44.32
2018-08-25T04:02:46.413Z,43.84
2018-08-25T04:03:56.263Z,40.7
2018-08-25T04:05:06.105Z,43.46
2018-08-25T04:06:16.224Z,45.47
2018-08-25T04:07:26.067Z,44.7
2018-08-25T04:08:35.638Z,42.41
2018-08-25T04:09:45.213Z,41.96
2018-08-25T04:10:54.783Z,41.56
2018-08-25T04:12:04.637Z,43.18
2018-08-25T04:13:14.204Z,44.44
2018-08-25T04:14:24.320Z,44.53
2018-08-25T04:15:33.621Z,44.23
2018-08-25T04:16:43.730Z,43.68
2018-08-25T04:17:53.302Z,43.96
2018-08-25T04:19:03.145Z,44.82
2018-08-25T04:20:12.721Z,43.1
2018-08-25T04:21:22.294Z,42.89
2018-08-25T04:22:31.592Z,42.34
2018-08-25T04:23:41.171Z,43.01
2018-08-25T04:24:50.479Z,42.63
2018-08-25T04:26:00.041Z,43.68
2018-08-25T04:27:09.890Z,44.34
2018-08-25T04:28:19.467Z,43.87
2018-08-25T04:29:29.316Z,43.96
2018-08-25T04:30:38.900Z,43.77
2018-08-25T04:31:49.017Z,45.49
2018-08-25T04:32:58.593Z,45.1
2018-08-25T04:34:08.718Z,45.49
2018-08-25T04:35:18.303Z,45.39
2018-08-25T04:36:27.878Z,45.2
2018-08-25T04:37:37.178Z,44.73
2018-08-25T04:38:46.483Z,44.82
2018-08-25T04:39:56.333Z,44.63
2018-08-25T04:41:06.222Z,45.68
2018-08-25T04:42:16.273Z,46.63
2018-08-25T04:43:25.571Z,45.2
2018-08-25T04:44:35.415Z,44.63
2018-08-25T04:45:45.255Z,47.97
2018-08-25T04:46:55.367Z,49.3
2018-08-25T04:48:04.946Z,47.58
2018-08-25T04:49:14.515Z,48.63
2018-08-25T04:50:23.813Z,48.35
2018-08-25T04:51:33.383Z,49.49
2018-08-25T04:52:42.688Z,49.4
2018-08-25T04:53:52.267Z,48.25
2018-08-25T04:55:02.108Z,49.3
2018-08-25T04:56:11.139Z,49.97
2018-08-25T04:57:21.257Z,52.26
2018-08-25T04:58:30.826Z,51.12
2018-08-25T04:59:40.401Z,50.63
2018-08-25T05:00:50.570Z,50.73
2018-08-25T05:02:00.980Z,50.73
2018-08-25T05:03:11.365Z,50.63
2018-08-25T05:04:20.945Z,49.78
2018-08-25T05:05:30.803Z,50.16
2018-08-25T05:06:40.646Z,51.71
2018-08-25T05:07:50.680Z,52.45
2018-08-25T05:09:00.363Z,51.97
2018-08-25T05:10:09.942Z,52.86
2018-08-25T05:11:19.820Z,53.05
2018-08-25T05:12:29.713Z,52.26
2018-08-25T05:13:39.611Z,51.43
2018-08-25T05:14:49.184Z,51.14
2018-08-25T05:15:59.049Z,49.99
2018-08-25T05:17:08.625Z,51.62
2018-08-25T05:18:17.393Z,50.18
2018-08-25T05:19:26.692Z,51.52
2018-08-25T05:20:36.260Z,51.14
2018-08-25T05:21:46.396Z,51.43
2018-08-25T05:22:56.735Z,50.18
2018-08-25T05:24:06.586Z,49.52
2018-08-25T05:25:16.427Z,49.04
2018-08-25T05:26:26.263Z,50.09
2018-08-25T05:27:35.836Z,51.62
2018-08-25T05:28:45.687Z,49.71
2018-08-25T05:29:55.801Z,50.09
2018-08-25T05:31:05.929Z,50.18
2018-08-25T05:32:16.046Z,47.32
2018-08-25T05:33:25.891Z,48.94
2018-08-25T05:34:36.006Z,46.56
2018-08-25T05:35:45.581Z,46.27
2018-08-25T05:36:55.425Z,43.89
2018-08-25T05:38:05.538Z,47.52
2018-08-25T05:39:15.385Z,49.23
2018-08-25T05:40:25.233Z,48.18
2018-08-25T05:41:34.314Z,48.08
2018-08-25T05:42:44.159Z,46.75
2018-08-25T05:43:54.271Z,48.47
2018-08-25T05:45:04.154Z,44.08
2018-08-25T05:46:13.738Z,43.98
2018-08-25T05:47:23.855Z,41.88
2018-08-25T05:48:33.154Z,39.78
2018-08-25T05:49:42.723Z,37.49
2018-08-25T05:50:52.028Z,33.39
2018-08-25T05:52:02.143Z,37.68
2018-08-25T05:53:11.720Z,35.87
2018-08-25T05:54:21.565Z,31.39
2018-08-25T05:55:30.863Z,31.39
2018-08-25T05:56:40.426Z,33.29
2018-08-25T05:57:50.148Z,30.91
2018-08-25T05:58:59.991Z,33.49
2018-08-25T06:00:09.560Z,31.96
2018-08-25T06:01:19.136Z,29.77
2018-08-25T06:02:28.980Z,31.1
2018-08-25T06:03:38.552Z,31.48
2018-08-25T06:04:48.178Z,29
2018-08-25T06:05:57.749Z,25.09
2018-08-25T06:07:07.593Z,19.08
2018-08-25T06:08:17.161Z,14.88
2018-08-25T06:09:27.004Z,17.55
2018-08-25T06:10:37.115Z,16.79
2018-08-25T06:11:46.985Z,11.54
2018-08-25T06:12:56.827Z,11.54
2018-08-25T06:14:06.674Z,8.77
2018-08-25T06:15:16.249Z,8.48
2018-08-25T06:16:25.823Z,5.34
2018-08-25T06:17:35.438Z,3.53
2018-08-25T06:18:45.637Z,2
2018-08-25T06:19:55.754Z,0.48
2018-08-25T06:21:05.323Z,1.33
2018-08-25T06:22:15.171Z,1.24
2018-08-25T06:23:24.745Z,0
2018-08-25T06:24:34.587Z,0
2018-08-25T06:25:44.699Z,0
2018-08-25T06:26:54.818Z,3.14
2018-08-25T06:28:04.394Z,3.72
2018-08-25T06:29:13.964Z,3.62
2018-08-25T06:30:24.098Z,4.19
2018-08-25T06:31:34.000Z,5.24
2018-08-25T06:32:44.115Z,2.29
2018-08-25T06:33:53.738Z,1.9
2018-08-25T06:35:03.322Z,2.95
2018-08-25T06:36:13.340Z,4.1
2018-08-25T06:37:22.653Z,4.38
2018-08-25T06:38:31.951Z,3.53
2018-08-25T06:39:42.085Z,2.29
2018-08-25T06:40:52.248Z,2.86
2018-08-25T06:42:02.368Z,0.28
2018-08-25T06:43:12.224Z,0
2018-08-25T06:44:22.346Z,1.24
2018-08-25T06:45:32.200Z,0.95
2018-08-25T06:46:41.499Z,0.95
2018-08-25T06:47:51.354Z,0
2018-08-25T06:49:00.929Z,0
2018-08-25T06:50:10.775Z,0
2018-08-25T06:51:20.351Z,0.85
2018-08-25T06:52:29.930Z,2.67
2018-08-25T06:53:39.784Z,4.19
2018-08-25T06:54:49.628Z,2.19
2018-08-25T06:55:59.201Z,0
2018-08-25T06:57:08.783Z,0
2018-08-25T06:58:18.619Z,0
2018-08-25T06:59:28.861Z,0.19
2018-08-25T07:00:39.164Z,0.48
2018-08-25T07:01:49.002Z,3.53
2018-08-25T07:02:58.844Z,2.95
2018-08-25T07:04:08.682Z,0.38
2018-08-25T07:05:18.256Z,0
2018-08-25T07:06:28.101Z,0
2018-08-25T07:07:37.945Z,0
2018-08-25T07:08:47.849Z,0
2018-08-25T07:09:57.694Z,0
2018-08-25T07:11:07.000Z,0
2018-08-25T07:12:16.842Z,0
2018-08-25T07:13:26.947Z,0
2018-08-25T07:14:37.076Z,0
2018-08-25T07:15:46.652Z,0
2018-08-25T07:16:56.491Z,0
2018-08-25T07:18:05.795Z,0
2018-08-25T07:19:15.372Z,0
2018-08-25T07:20:25.271Z,0.76
2018-08-25T07:21:35.386Z,3.15
2018-08-25T07:22:45.240Z,2.19
2018-08-25T07:23:55.349Z,3.81
2018-08-25T07:25:05.203Z,1.72
2018-08-25T07:26:15.627Z,1.9
2018-08-25T07:27:25.905Z,1.05
2018-08-25T07:28:35.473Z,1.62
2018-08-25T07:29:45.588Z,2.1
2018-08-25T07:30:55.157Z,0.76
2018-08-25T07:32:04.871Z,1.24
2018-08-25T07:33:15.335Z,1.05
2018-08-25T07:34:25.174Z,0.48
2018-08-25T07:35:35.064Z,4.1
2018-08-25T07:36:45.188Z,3.44
2018-08-25T07:37:54.756Z,1.81
2018-08-25T07:39:04.605Z,1.62
2018-08-25T07:40:14.725Z,3.05
2018-08-25T07:41:24.307Z,4.2
2018-08-25T07:42:33.879Z,5.34
2018-08-25T07:43:43.185Z,7.06
2018-08-25T07:44:52.771Z,6.77
2018-08-25T07:46:02.343Z,6.77
2018-08-25T07:47:12.460Z,7.16
2018-08-25T07:48:21.763Z,6.96
2018-08-25T07:49:31.829Z,7.25
2018-08-25T07:50:41.584Z,7.25
2018-08-25T07:51:51.730Z,5.54
2018-08-25T07:53:01.925Z,6.11
2018-08-25T07:54:11.497Z,8.5
2018-08-25T07:55:21.074Z,9.74
2018-08-25T07:56:30.917Z,9.26
2018-08-25T07:57:41.036Z,8.97
2018-08-25T07:58:50.610Z,8.21
2018-08-25T08:00:00.179Z,9.45
2018-08-25T08:01:10.304Z,10.02
2018-08-25T08:02:19.882Z,9.55
2018-08-25T08:03:29.723Z,7.54
2018-08-25T08:04:39.351Z,8.97
2018-08-25T08:05:49.315Z,9.26
2018-08-25T08:06:58.932Z,8.78
2018-08-25T08:08:08.508Z,8.5
2018-08-25T08:09:18.631Z,10.88
2018-08-25T08:10:28.204Z,8.5
2018-08-25T08:11:37.807Z,7.54
2018-08-25T08:12:47.401Z,7.64
2018-08-25T08:13:57.249Z,5.54
2018-08-25T08:15:06.828Z,6.11
2018-08-25T08:16:16.400Z,4.39
2018-08-25T08:17:26.246Z,1.9
2018-08-25T08:18:35.869Z,3.05
2018-08-25T08:19:45.165Z,3.44
2018-08-25T08:20:55.005Z,3.05
2018-08-25T08:22:04.578Z,3.05
2018-08-25T08:23:14.698Z,2.48
2018-08-25T08:24:24.594Z,2.95
2018-08-25T08:25:34.178Z,2.29
2018-08-25T08:26:43.491Z,0
2018-08-25T08:27:52.802Z,0
2018-08-25T08:29:02.658Z,0.19
2018-08-25T08:30:12.781Z,0.38
2018-08-25T08:31:22.355Z,0.85
2018-08-25T08:32:31.661Z,1.53
2018-08-25T08:33:41.506Z,0.38
2018-08-25T08:34:50.808Z,0
2018-08-25T08:36:00.105Z,0
2018-08-25T08:37:09.413Z,0
2018-08-25T08:38:18.986Z,0
2018-08-25T08:39:28.938Z,0
2018-08-25T08:40:38.679Z,0
2018-08-25T08:41:48.528Z,0
2018-08-25T08:42:58.368Z,0.38
2018-08-25T08:44:08.213Z,0
2018-08-25T08:45:18.125Z,0.19
2018-08-25T08:46:27.864Z,0.19
2018-08-25T08:47:37.952Z,0
2018-08-25T08:48:48.145Z,0
2018-08-25T08:49:58.129Z,0
2018-08-25T08:51:06.827Z,0
2018-08-25T08:52:16.399Z,0
2018-08-25T08:53:25.702Z,0
2018-08-25T08:54:35.269Z,0
2018-08-25T08:55:45.115Z,0
2018-08-25T08:56:55.239Z,0
2018-08-25T08:58:04.824Z,0
2018-08-25T08:59:14.158Z,0
2018-08-25T09:00:23.729Z,0
2018-08-25T09:01:33.846Z,0
2018-08-25T09:02:42.884Z,0
2018-08-25T09:03:52.181Z,0
2018-08-25T09:05:01.758Z,0
2018-08-25T09:06:11.599Z,0
2018-08-25T09:07:21.455Z,0
2018-08-25T09:08:31.299Z,0
2018-08-25T09:09:41.143Z,0
2018-08-25T09:10:50.781Z,0
2018-08-25T09:12:00.627Z,0
2018-08-25T09:13:10.493Z,0
2018-08-25T09:14:20.063Z,0
2018-08-25T09:15:29.638Z,0
2018-08-25T09:16:38.940Z,0
2018-08-25T09:17:48.512Z,0
2018-08-25T09:18:57.544Z,0
2018-08-25T09:20:07.119Z,0
2018-08-25T09:21:16.691Z,0
2018-08-25T09:22:26.257Z,0
2018-08-25T09:23:35.552Z,0
2018-08-25T09:24:45.130Z,0
2018-08-25T09:25:54.978Z,0
2018-08-25T09:27:04.820Z,0
2018-08-25T09:28:14.699Z,0
2018-08-25T09:29:24.265Z,0
2018-08-25T09:30:33.566Z,0
2018-08-25T09:31:42.872Z,0
2018-08-25T09:32:52.714Z,0
2018-08-25T09:34:02.286Z,0
2018-08-25T09:35:12.399Z,0
2018-08-25T09:36:22.663Z,0
2018-08-25T09:37:33.431Z,0
2018-08-25T09:38:43.000Z,0
2018-08-25T09:39:52.891Z,0
2018-08-25T09:41:02.464Z,0
2018-08-25T09:42:12.305Z,0
2018-08-25T09:43:22.147Z,0
2018-08-25T09:44:32.256Z,0
2018-08-25T09:45:41.345Z,0
2018-08-25T09:46:51.534Z,0
2018-08-25T09:48:01.633Z,0
2018-08-25T09:49:11.759Z,0
2018-08-25T09:50:21.611Z,0
2018-08-25T09:51:31.469Z,0
2018-08-25T09:52:41.039Z,0
2018-08-25T09:53:51.147Z,0
2018-08-25T09:55:00.998Z,0
2018-08-25T09:56:10.839Z,0
2018-08-25T09:57:20.695Z,0
2018-08-25T09:58:30.546Z,0
2018-08-25T09:59:39.575Z,0
2018-08-25T10:00:49.417Z,0
2018-08-25T10:01:58.985Z,0
2018-08-25T10:03:08.281Z,0
2018-08-25T10:04:17.861Z,0
2018-08-25T10:05:27.708Z,0
2018-08-25T10:06:37.551Z,0
2018-08-25T10:07:47.394Z,0
2018-08-25T10:08:57.234Z,0
2018-08-25T10:10:06.804Z,0
2018-08-25T10:11:16.386Z,0
2018-08-25T10:12:26.226Z,0
2018-08-25T10:13:36.067Z,0
2018-08-25T10:14:45.369Z,0
2018-08-25T10:15:54.676Z,0
2018-08-25T10:17:04.246Z,0
2018-08-25T10:18:14.358Z,0
2018-08-25T10:19:23.924Z,0
2018-08-25T10:20:33.761Z,0
2018-08-25T10:21:43.608Z,0
2018-08-25T10:22:52.928Z,0
2018-08-25T10:24:01.944Z,0
2018-08-25T10:25:11.589Z,0
2018-08-25T10:26:21.429Z,0
2018-08-25T10:27:30.999Z,0
2018-08-25T10:28:41.106Z,0
2018-08-25T10:29:51.106Z,0
2018-08-25T10:31:00.140Z,0
2018-08-25T10:32:09.441Z,0
2018-08-25T10:33:19.294Z,0
2018-08-25T10:34:29.144Z,0
2018-08-25T10:35:39.046Z,0
2018-08-25T10:36:49.217Z,0
2018-08-25T10:37:59.068Z,0
2018-08-25T10:39:08.646Z,0
2018-08-25T10:40:18.756Z,0
2018-08-25T10:41:28.379Z,0
2018-08-25T10:42:38.027Z,0
2018-08-25T10:43:47.599Z,0
2018-08-25T10:44:57.173Z,0
2018-08-25T10:46:06.479Z,0
2018-08-25T10:47:16.324Z,0
2018-08-25T10:48:25.626Z,0
2018-08-25T10:49:35.739Z,0
2018-08-25T10:50:45.312Z,0
2018-08-25T10:51:55.435Z,0
2018-08-25T10:53:04.741Z,0
2018-08-25T10:54:14.619Z,0
2018-08-25T10:55:24.734Z,0
2018-08-25T10:56:34.310Z,0
2018-08-25T10:57:44.200Z,0
2018-08-25T10:58:53.501Z,0
2018-08-25T11:00:03.761Z,0
2018-08-25T11:01:14.176Z,0
2018-08-25T11:02:23.975Z,0
2018-08-25T11:03:33.880Z,0
2018-08-25T11:04:43.193Z,0
2018-08-25T11:05:53.309Z,0
2018-08-25T11:07:03.425Z,0
2018-08-25T11:08:13.270Z,0
2018-08-25T11:09:22.306Z,0
2018-08-25T11:10:31.339Z,0
2018-08-25T11:11:40.930Z,0
2018-08-25T11:12:51.047Z,0
2018-08-25T11:14:00.621Z,0
2018-08-25T11:15:09.922Z,0
2018-08-25T11:16:19.531Z,0
2018-08-25T11:17:29.217Z,0
2018-08-25T11:18:39.337Z,0
2018-08-25T11:19:49.177Z,0
2018-08-25T11:20:59.018Z,0
2018-08-25T11:22:08.053Z,0
2018-08-25T11:23:18.171Z,0
2018-08-25T11:24:27.746Z,0
2018-08-25T11:25:37.584Z,0
2018-08-25T11:26:47.150Z,0
2018-08-25T11:27:57.312Z,0
2018-08-25T11:29:06.678Z,0
2018-08-25T11:30:16.721Z,0
2018-08-25T11:31:26.568Z,0
2018-08-25T11:32:36.446Z,0
2018-08-25T11:33:46.561Z,0
2018-08-25T11:34:56.137Z,0
2018-08-25T11:36:06.283Z,0
2018-08-25T11:37:16.001Z,0
2018-08-25T11:38:26.219Z,0
2018-08-25T11:39:35.793Z,0
2018-08-25T11:40:45.639Z,0
2018-08-25T11:41:55.493Z,0
2018-08-25T11:43:05.331Z,0
2018-08-25T11:44:15.180Z,0
2018-08-25T11:45:24.487Z,0
2018-08-25T11:46:34.337Z,0
2018-08-25T11:47:44.459Z,0
2018-08-25T11:48:54.300Z,0
2018-08-25T11:50:04.156Z,0
2018-08-25T11:51:13.998Z,0
2018-08-25T11:52:23.575Z,0
2018-08-25T11:53:32.605Z,0.67
2018-08-25T11:54:41.905Z,0
2018-08-25T11:55:52.040Z,5.92
2018-08-25T11:57:01.905Z,8.22
2018-08-25T11:58:11.747Z,11.76
2018-08-25T11:59:21.595Z,5.07
2018-08-25T12:00:31.168Z,9.84
2018-08-25T12:01:40.754Z,10.13
2018-08-25T12:02:50.607Z,8.42
2018-08-25T12:04:00.478Z,27.45
2018-08-25T12:05:09.504Z,28.5
2018-08-25T12:06:19.346Z,28.59
2018-08-25T12:07:28.923Z,32.42
2018-08-25T12:08:37.954Z,33.76
2018-08-25T12:09:47.536Z,32.42
2018-08-25T12:10:56.846Z,31.37
2018-08-25T12:12:06.961Z,32.04
2018-08-25T12:13:16.594Z,26.86
2018-08-25T12:14:26.442Z,18.93
2018-08-25T12:15:36.021Z,21.8
2018-08-25T12:16:45.595Z,22.27
2018-08-25T12:17:54.908Z,19.6
2018-08-25T12:19:04.230Z,18.64
2018-08-25T12:20:14.343Z,31.64
2018-08-25T12:21:23.647Z,32.03
2018-08-25T12:22:33.495Z,33.75
2018-08-25T12:23:43.609Z,41.41
2018-08-25T12:24:52.927Z,37.68
2018-08-25T12:26:03.049Z,35.2
2018-08-25T12:27:12.626Z,41.13
2018-08-25T12:28:22.482Z,48.59
2018-08-25T12:29:32.102Z,46.48
2018-08-25T12:30:41.886Z,44
2018-08-25T12:31:52.272Z,43.9
2018-08-25T12:33:01.854Z,43.14
2018-08-25T12:34:11.975Z,45.05
2018-08-25T12:35:21.816Z,50.7
2018-08-25T12:36:31.674Z,48.59
2018-08-25T12:37:41.520Z,52.61
2018-08-25T12:38:51.391Z,44.48
2018-08-25T12:40:01.247Z,43.62
2018-08-25T12:41:10.830Z,46.01
2018-08-25T12:42:20.947Z,41.32
2018-08-25T12:43:30.272Z,46.2
2018-08-25T12:44:40.827Z,52.32
2018-08-25T12:45:50.416Z,50.41
2018-08-25T12:47:00.254Z,45.34
2018-08-25T12:48:09.557Z,48.97
2018-08-25T12:49:19.405Z,30.32
2018-08-25T12:50:29.254Z,38.95
2018-08-25T12:51:39.182Z,37.04
2018-08-25T12:52:49.058Z,41.91
2018-08-25T12:53:58.632Z,54.16
2018-08-25T12:55:08.493Z,49.88
2018-08-25T12:56:18.117Z,49.79
2018-08-25T12:57:27.961Z,55.53
2018-08-25T12:58:37.808Z,55.63
2018-08-25T12:59:47.130Z,56.1
2018-08-25T13:00:56.980Z,63.51
2018-08-25T13:02:06.556Z,60.83
2018-08-25T13:03:16.127Z,54.99
2018-08-25T13:04:25.976Z,59.58
2018-08-25T13:05:35.283Z,59.2
2018-08-25T13:06:44.863Z,59.68
2018-08-25T13:07:54.445Z,63.03
2018-08-25T13:09:04.013Z,60.64
2018-08-25T13:10:13.864Z,54.5
2018-08-25T13:11:23.171Z,58.91
2018-08-25T13:12:33.016Z,63.22
2018-08-25T13:13:42.856Z,63.8
2018-08-25T13:14:52.703Z,58.53
2018-08-25T13:16:02.551Z,62.55
2018-08-25T13:17:12.451Z,62.46
2018-08-25T13:18:21.759Z,56.61
2018-08-25T13:19:31.339Z,64.76
2018-08-25T13:20:41.181Z,58.05
2018-08-25T13:21:51.124Z,38.12
2018-08-25T13:23:00.568Z,48.38
2018-08-25T13:24:09.331Z,56.42
2018-08-25T13:25:19.464Z,58.81
2018-08-25T13:26:29.581Z,49.52
2018-08-25T13:27:39.155Z,35.53
2018-08-25T13:28:49.271Z,39.16
2018-08-25T13:29:59.121Z,40.21
2018-08-25T13:31:09.297Z,23.27
2018-08-25T13:32:19.480Z,40.12
2018-08-25T13:33:29.336Z,29.01
2018-08-25T13:34:38.639Z,39.73
2018-08-25T13:35:48.222Z,50.52
2018-08-25T13:36:57.795Z,41.44
2018-08-25T13:38:08.040Z,34.06
2018-08-25T13:39:18.252Z,54.74
2018-08-25T13:40:27.838Z,56.62
2018-08-25T13:41:37.412Z,60.55
2018-08-25T13:42:46.983Z,44.93
2018-08-25T13:43:56.555Z,35.37
2018-08-25T13:45:06.141Z,31.55
2018-08-25T13:46:16.269Z,17.11
2018-08-25T13:47:26.107Z,11.08
2018-08-25T13:48:36.222Z,15.38
2018-08-25T13:49:46.336Z,8.4
2018-08-25T13:50:56.295Z,1.34
2018-08-25T13:52:06.154Z,3.44
2018-08-25T13:53:16.272Z,0.09
2018-08-25T13:54:25.843Z,0
2018-08-25T13:55:35.700Z,0
2018-08-25T13:56:45.594Z,0
2018-08-25T13:57:55.433Z,0
2018-08-25T13:59:05.277Z,0
2018-08-25T14:00:14.852Z,0
2018-08-25T14:01:24.694Z,0
2018-08-25T14:02:33.996Z,0
2018-08-25T14:03:43.836Z,0
2018-08-25T14:04:53.952Z,0
2018-08-25T14:06:03.815Z,0
2018-08-25T14:07:13.398Z,0
2018-08-25T14:08:23.602Z,0
2018-08-25T14:09:34.082Z,0
2018-08-25T14:10:43.661Z,0
2018-08-25T14:11:53.783Z,0
2018-08-25T14:13:03.622Z,0
2018-08-25T14:14:13.193Z,0
2018-08-25T14:15:22.765Z,0
2018-08-25T14:16:32.164Z,0
2018-08-25T14:17:41.509Z,4.3
2018-08-25T14:18:50.821Z,7.27
2018-08-25T14:20:00.398Z,0
2018-08-25T14:21:09.978Z,0
2018-08-25T14:22:19.554Z,4.02
2018-08-25T14:23:29.417Z,1.91
2018-08-25T14:24:39.544Z,3.83
2018-08-25T14:25:49.400Z,11.68
2018-08-25T14:26:59.521Z,30.75
2018-08-25T14:28:09.651Z,31.13
2018-08-25T14:29:19.238Z,31.32
2018-08-25T14:30:29.085Z,25.1
2018-08-25T14:31:38.988Z,41.28
2018-08-25T14:32:48.849Z,39.73
2018-08-25T14:33:58.160Z,31.98
2018-08-25T14:35:08.277Z,41.74
2018-08-25T14:36:18.254Z,37.34
2018-08-25T14:37:27.657Z,29.77
2018-08-25T14:38:37.769Z,45
2018-08-25T14:39:47.665Z,39.54
2018-08-25T14:40:57.549Z,24.99
2018-08-25T14:42:06.599Z,37.82
2018-08-25T14:43:16.525Z,39.16
2018-08-25T14:44:26.379Z,39.92
2018-08-25T14:45:36.228Z,31.98
2018-08-25T14:46:45.814Z,35.14
2018-08-25T14:47:55.660Z,37.24
2018-08-25T14:49:05.515Z,47.71
2018-08-25T14:50:15.104Z,48.44
2018-08-25T14:51:24.686Z,54.86
2018-08-25T14:52:33.994Z,51.7
2018-08-25T14:53:44.121Z,61.47
2018-08-25T14:54:53.964Z,57.35
2018-08-25T14:56:03.534Z,56.2
2018-08-25T14:57:13.111Z,53.91
2018-08-25T14:58:22.955Z,48.73
2018-08-25T14:59:32.795Z,64.25
2018-08-25T15:00:42.481Z,59.94
2018-08-25T15:01:52.514Z,65.3
2018-08-25T15:03:02.140Z,63.86
2018-08-25T15:04:11.719Z,52.75
2018-08-25T15:05:21.838Z,58.59
2018-08-25T15:06:31.419Z,60.89
2018-08-25T15:07:41.272Z,62.14
2018-08-25T15:08:50.912Z,70.41
2018-08-25T15:10:00.493Z,70.06
2018-08-25T15:11:09.803Z,67.28
2018-08-25T15:12:19.978Z,68.08
2018-08-25T15:13:29.947Z,71.63
2018-08-25T15:14:39.601Z,62.65
2018-08-25T15:15:49.186Z,78.57
2018-08-25T15:16:59.314Z,81.16
2018-08-25T15:18:08.894Z,79.05
2018-08-25T15:19:19.016Z,81.1
2018-08-25T15:20:28.352Z,78.42
2018-08-25T15:21:37.950Z,79.8
2018-08-25T15:22:47.803Z,70.29
2018-08-25T15:23:56.850Z,84.6
2018-08-25T15:25:06.155Z,83.16
2018-08-25T15:26:16.008Z,84.94
2018-08-25T15:27:26.251Z,85.95
2018-08-25T15:28:36.204Z,89.79
2018-08-25T15:29:45.521Z,77.36
2018-08-25T15:30:55.440Z,88.02
2018-08-25T15:32:05.549Z,87.21
2018-08-25T15:33:15.680Z,87.01
2018-08-25T15:34:25.523Z,82.51
2018-08-25T15:35:35.388Z,83.94
2018-08-25T15:36:45.267Z,82.37
2018-08-25T15:37:55.445Z,87.07